METAR Data
IDs: Format: Raw Decoded Include TAF

Data at: 0223 UTC 26 Apr 2019

RJNT 260200Z 03004KT 010V090 4500 -SHRA BR FEW003 SCT005 BKN006 12/11 Q1006
RJNT 260140Z 36007KT 5000 -SHRA BR FEW003 SCT005 BKN006 11/11 Q1006 RMK 1ST003 3CU005 5CU006 A2972
RJNT 260129Z 35007KT 4000 -SHRA BR FEW003 SCT005 BKN006 11/11 Q1006 RMK 1ST003 3CU005 5CU006 A2972
RJNT 260100Z 32007KT 6000 -SHRA FEW003 SCT004 BKN005 11/11 Q1006
RJNT 260029Z 33007KT 300V360 5000 -SHRA BR FEW003 SCT004 BKN005 12/11 Q1005 RMK 1ST003 3CU004 5CU005 A2968
RJNT 260015Z 32007KT 290V010 3500 SHRA BR FEW002 SCT003 BKN004 12/12 Q1004 RMK 1ST002 3CU003 5CU004 A2966
RJNT 260000Z 33005KT 5000 -SHRA BR FEW003 SCT004 BKN005 12/11 Q1004
RJNT 252345Z 33005KT 4000 -SHRA BR FEW003 SCT004 BKN005 12/11 Q1004 RMK 1ST003 3CU004 5CU005 A2965
RJNT 252328Z 35005KT 3500 SHRA BR FEW002 SCT003 BKN004 12/11 Q1004 RMK 1ST002 3CU003 5CU004 A2965
RJNT 252300Z 03005KT 340V070 4000 -SHRA BR FEW003 SCT004 BKN005 12/11 Q1004
RJNT 252243Z 05005KT 010V110 4500 -SHRA BR FEW003 SCT004 BKN005 12/12 Q1004 RMK 1ST003 3CU004 5CU005 A2966
RJNT 252200Z 36007KT 3500 -SHRA BR FEW002 SCT003 BKN004 12/12 Q1004
RJNT 252110Z 21004KT 160V270 3500 -SHRA BR FEW002 BKN004 BKN020 12/12 Q1003 RMK 1ST002 5ST004 6CU020 A2964
RJNT 251225Z 36004KT 2500 -SHRA BR FEW002 BKN005 BKN010 12/12 Q1007 RMK 1ST002 5ST005 7CU010 A2974
RJNT 251200Z 36004KT 2200 -SHRA BR FEW002 SCT005 BKN008 12/12 Q1007
RJNT 251100Z 01006KT 2000 -SHRA BR FEW001 SCT003 BKN005 12/12 Q1007
RJNT 251039Z 01006KT 2200 -SHRA BR FEW001 SCT003 BKN005 12/12 Q1007 RMK 1ST001 3ST003 6CU005 A2975 1000NW-N
RJNT 251025Z 02004KT 3200 -SHRA BR FEW003 BKN005 12/12 Q1007 RMK 2ST003 7CU005 A2974
RJNT 251000Z 36004KT 2200 -SHRA BR FEW002 BKN005 12/12 Q1007
RJNT 250923Z 36004KT 330V040 2500 -SHRA BR FEW002 SCT005 BKN008 13/12 Q1006 RMK 1ST002 3CU005 7CU008 A2973
RJNT 250917Z 02004KT 340V050 2000 -SHRA BR SCT002 BKN005 13/12 Q1006 RMK 3ST002 7CU005 A2973
RJNT 250900Z 01005KT 1500 -SHRA BR SCT002 BKN005 13/12 Q1006
RJNT 250824Z 36005KT 1500 -SHRA BR SCT002 BKN005 13/13 Q1006 RMK 3ST002 7CU005 A2972
RJNT 250800Z 36003KT 330V040 2000 -SHRA BR FEW002 BKN007 13/13 Q1006
RJNT 250716Z 02006KT 340V040 2000 -SHRA BR FEW003 BKN005 13/13 Q1006 RMK 2ST003 7CU005 A2973
RJNT 250700Z 03006KT 360V070 2400 -SHRA BR FEW003 BKN005 BKN010 13/13 Q1006
RJNT 250600Z 02007KT 3000 -SHRA BR FEW003 BKN005 BKN010 14/13 Q1006
RJNT 250519Z 03009KT 3000 -SHRA BR FEW003 BKN008 BKN015 14/13 Q1006 RMK 1ST003 5CU008 7CU015 A2972
RJNT 250500Z 02007KT 5000 -SHRA BR FEW005 BKN010 BKN020 15/14 Q1006
RJNT 250448Z 02009KT 5000 -SHRA BR FEW002 SCT005 BKN020 15/14 Q1006 RMK 1ST002 3CU005 7CU020 A2971 2500NE-SE
RJNT 250427Z 03010KT 3000 -SHRA BR FEW002 BKN008 BKN015 15/15 Q1006 RMK 1ST002 5CU008 7CU015 A2971
RJNT 250418Z 36010KT 9999 -SHRA BR FEW003 BKN008 BKN015 17/15 Q1005 RMK 1ST003 5CU008 7CU015 A2970 4000NW-N
RJNT 250400Z 32006KT 270V340 9999 -SHRA FEW005 BKN010 BKN030 18/16 Q1005
RJNT 250328Z 29008KT 9999 -SHRA FEW005 BKN010 BKN030 18/16 Q1005 RMK 1CU005 5CU010 6CU030 A2969
RJNT 250300Z 29008KT 9999 -SHRA FEW003 SCT007 BKN009 18/17 Q1005